sensor_id;sensor_type;location;lat;lon;timestamp;temperature;humidity
21271;DHT22;10795;50.796;3.860;2022-08-26T00:01:19;21.80;99.90
21271;DHT22;10795;50.796;3.860;2022-08-26T00:03:45;21.40;99.90
21271;DHT22;10795;50.796;3.860;2022-08-26T00:06:10;21.80;99.90
21271;DHT22;10795;50.796;3.860;2022-08-26T00:08:36;21.50;99.90
21271;DHT22;10795;50.796;3.860;2022-08-26T00:11:03;21.20;99.90
21271;DHT22;10795;50.796;3.860;2022-08-26T00:13:28;21.10;99.90
21271;DHT22;10795;50.796;3.860;2022-08-26T00:15:54;21.20;99.90
21271;DHT22;10795;50.796;3.860;2022-08-26T00:18:21;21.10;99.90
21271;DHT22;10795;50.796;3.860;2022-08-26T00:20:47;21.10;99.90
21271;DHT22;10795;50.796;3.860;2022-08-26T00:23:13;21.00;99.90
21271;DHT22;10795;50.796;3.860;2022-08-26T00:25:39;20.90;99.90
21271;DHT22;10795;50.796;3.860;2022-08-26T00:28:05;20.90;99.90
21271;DHT22;10795;50.796;3.860;2022-08-26T00:30:31;20.90;99.90
21271;DHT22;10795;50.796;3.860;2022-08-26T00:32:57;20.80;99.90
21271;DHT22;10795;50.796;3.860;2022-08-26T00:35:23;20.90;99.90
21271;DHT22;10795;50.796;3.860;2022-08-26T00:37:49;21.10;99.90
21271;DHT22;10795;50.796;3.860;2022-08-26T00:40:21;21.10;99.90
21271;DHT22;10795;50.796;3.860;2022-08-26T00:42:47;21.90;99.90
21271;DHT22;10795;50.796;3.860;2022-08-26T00:45:13;22.00;99.90
21271;DHT22;10795;50.796;3.860;2022-08-26T00:47:39;21.70;99.90
21271;DHT22;10795;50.796;3.860;2022-08-26T00:50:10;21.40;99.90
21271;DHT22;10795;50.796;3.860;2022-08-26T00:52:36;21.10;99.90
21271;DHT22;10795;50.796;3.860;2022-08-26T00:55:04;21.00;99.90
21271;DHT22;10795;50.796;3.860;2022-08-26T00:57:31;20.90;99.90
21271;DHT22;10795;50.796;3.860;2022-08-26T00:59:57;21.00;99.90
21271;DHT22;10795;50.796;3.860;2022-08-26T01:02:25;21.20;99.90
21271;DHT22;10795;50.796;3.860;2022-08-26T01:04:52;21.20;99.90
21271;DHT22;10795;50.796;3.860;2022-08-26T01:07:19;21.20;99.90
21271;DHT22;10795;50.796;3.860;2022-08-26T01:09:45;21.30;99.90
21271;DHT22;10795;50.796;3.860;2022-08-26T01:12:10;21.30;99.90
21271;DHT22;10795;50.796;3.860;2022-08-26T01:14:36;21.10;99.90
21271;DHT22;10795;50.796;3.860;2022-08-26T01:17:03;21.10;99.90
21271;DHT22;10795;50.796;3.860;2022-08-26T01:19:42;21.20;99.90
21271;DHT22;10795;50.796;3.860;2022-08-26T01:22:10;21.40;99.90
21271;DHT22;10795;50.796;3.860;2022-08-26T01:24:38;21.40;99.90
21271;DHT22;10795;50.796;3.860;2022-08-26T01:27:06;21.30;99.90
21271;DHT22;10795;50.796;3.860;2022-08-26T01:29:33;21.20;99.90
21271;DHT22;10795;50.796;3.860;2022-08-26T01:31:59;20.90;99.90
21271;DHT22;10795;50.796;3.860;2022-08-26T01:34:26;20.80;99.90
21271;DHT22;10795;50.796;3.860;2022-08-26T01:37:12;21.30;99.90
21271;DHT22;10795;50.796;3.860;2022-08-26T01:39:38;21.10;99.90
21271;DHT22;10795;50.796;3.860;2022-08-26T01:42:04;21.10;99.90
21271;DHT22;10795;50.796;3.860;2022-08-26T01:44:33;20.90;99.90
21271;DHT22;10795;50.796;3.860;2022-08-26T01:47:00;20.80;99.90
21271;DHT22;10795;50.796;3.860;2022-08-26T01:49:26;20.70;99.90
21271;DHT22;10795;50.796;3.860;2022-08-26T01:51:53;20.70;99.90
21271;DHT22;10795;50.796;3.860;2022-08-26T01:54:19;20.70;99.90
21271;DHT22;10795;50.796;3.860;2022-08-26T01:56:45;20.80;99.90
21271;DHT22;10795;50.796;3.860;2022-08-26T01:59:12;20.80;99.90
21271;DHT22;10795;50.796;3.860;2022-08-26T02:01:39;20.90;99.90
21271;DHT22;10795;50.796;3.860;2022-08-26T02:06:40;21.00;99.90
21271;DHT22;10795;50.796;3.860;2022-08-26T02:09:06;21.10;99.90
21271;DHT22;10795;50.796;3.860;2022-08-26T02:11:31;20.80;99.90
21271;DHT22;10795;50.796;3.860;2022-08-26T02:13:58;20.50;99.90
21271;DHT22;10795;50.796;3.860;2022-08-26T02:16:27;20.50;99.90
21271;DHT22;10795;50.796;3.860;2022-08-26T02:18:55;20.50;99.90
21271;DHT22;10795;50.796;3.860;2022-08-26T02:21:22;20.60;99.90
21271;DHT22;10795;50.796;3.860;2022-08-26T02:23:47;20.80;99.90
21271;DHT22;10795;50.796;3.860;2022-08-26T02:26:15;20.90;99.90
21271;DHT22;10795;50.796;3.860;2022-08-26T02:31:28;21.00;99.90
21271;DHT22;10795;50.796;3.860;2022-08-26T02:33:54;21.10;99.90
21271;DHT22;10795;50.796;3.860;2022-08-26T02:36:23;20.70;99.90
21271;DHT22;10795;50.796;3.860;2022-08-26T02:38:49;20.50;99.90
21271;DHT22;10795;50.796;3.860;2022-08-26T02:41:15;20.40;99.90
21271;DHT22;10795;50.796;3.860;2022-08-26T02:43:41;20.50;99.90
21271;DHT22;10795;50.796;3.860;2022-08-26T02:46:06;20.40;99.90
21271;DHT22;10795;50.796;3.860;2022-08-26T02:48:32;20.50;99.90
21271;DHT22;10795;50.796;3.860;2022-08-26T02:50:58;20.50;99.90
21271;DHT22;10795;50.796;3.860;2022-08-26T02:53:24;20.80;99.90
21271;DHT22;10795;50.796;3.860;2022-08-26T02:55:50;20.70;99.90
21271;DHT22;10795;50.796;3.860;2022-08-26T02:58:16;20.60;99.90
21271;DHT22;10795;50.796;3.860;2022-08-26T03:00:41;20.90;99.90
21271;DHT22;10795;50.796;3.860;2022-08-26T03:03:07;20.60;99.90
21271;DHT22;10795;50.796;3.860;2022-08-26T03:05:33;20.40;99.90
21271;DHT22;10795;50.796;3.860;2022-08-26T03:07:59;20.50;99.90
21271;DHT22;10795;50.796;3.860;2022-08-26T03:10:25;20.50;99.90
21271;DHT22;10795;50.796;3.860;2022-08-26T03:12:51;20.50;99.90
21271;DHT22;10795;50.796;3.860;2022-08-26T03:15:17;20.60;99.90
21271;DHT22;10795;50.796;3.860;2022-08-26T03:17:43;20.70;99.90
21271;DHT22;10795;50.796;3.860;2022-08-26T03:20:09;20.30;99.90
21271;DHT22;10795;50.796;3.860;2022-08-26T03:22:35;20.60;99.90
21271;DHT22;10795;50.796;3.860;2022-08-26T03:25:04;20.50;99.90
21271;DHT22;10795;50.796;3.860;2022-08-26T03:27:30;20.40;99.90
21271;DHT22;10795;50.796;3.860;2022-08-26T03:29:56;20.50;99.90
21271;DHT22;10795;50.796;3.860;2022-08-26T03:32:41;20.80;99.90
21271;DHT22;10795;50.796;3.860;2022-08-26T03:35:07;20.80;99.90
21271;DHT22;10795;50.796;3.860;2022-08-26T03:37:32;20.60;99.90
21271;DHT22;10795;50.796;3.860;2022-08-26T03:39:58;20.30;99.90
21271;DHT22;10795;50.796;3.860;2022-08-26T03:42:23;20.20;99.90
21271;DHT22;10795;50.796;3.860;2022-08-26T03:44:49;20.40;99.90
21271;DHT22;10795;50.796;3.860;2022-08-26T03:47:16;20.50;99.90
21271;DHT22;10795;50.796;3.860;2022-08-26T03:49:41;20.40;99.90
21271;DHT22;10795;50.796;3.860;2022-08-26T03:52:10;20.20;99.90
21271;DHT22;10795;50.796;3.860;2022-08-26T03:54:35;20.00;99.90
21271;DHT22;10795;50.796;3.860;2022-08-26T03:57:01;20.00;99.90
21271;DHT22;10795;50.796;3.860;2022-08-26T03:59:27;20.30;99.90
21271;DHT22;10795;50.796;3.860;2022-08-26T04:01:53;20.40;99.90
21271;DHT22;10795;50.796;3.860;2022-08-26T04:04:18;20.20;99.90
21271;DHT22;10795;50.796;3.860;2022-08-26T04:06:44;20.30;99.90
21271;DHT22;10795;50.796;3.860;2022-08-26T04:09:11;20.20;99.90
21271;DHT22;10795;50.796;3.860;2022-08-26T04:11:37;20.60;99.90
21271;DHT22;10795;50.796;3.860;2022-08-26T04:14:05;20.10;99.90
21271;DHT22;10795;50.796;3.860;2022-08-26T04:16:31;20.30;99.90
21271;DHT22;10795;50.796;3.860;2022-08-26T04:18:57;20.30;99.90
21271;DHT22;10795;50.796;3.860;2022-08-26T04:21:23;20.40;99.90
21271;DHT22;10795;50.796;3.860;2022-08-26T04:23:49;20.00;99.90
21271;DHT22;10795;50.796;3.860;2022-08-26T04:26:18;19.90;99.90
21271;DHT22;10795;50.796;3.860;2022-08-26T04:28:45;19.90;99.90
21271;DHT22;10795;50.796;3.860;2022-08-26T04:31:11;20.00;99.90
21271;DHT22;10795;50.796;3.860;2022-08-26T04:33:39;20.00;99.90
21271;DHT22;10795;50.796;3.860;2022-08-26T04:36:05;20.10;99.90
21271;DHT22;10795;50.796;3.860;2022-08-26T04:38:30;19.80;99.90
21271;DHT22;10795;50.796;3.860;2022-08-26T04:40:56;20.00;99.90
21271;DHT22;10795;50.796;3.860;2022-08-26T04:43:23;20.10;99.90
21271;DHT22;10795;50.796;3.860;2022-08-26T04:45:50;20.40;99.90
21271;DHT22;10795;50.796;3.860;2022-08-26T04:48:15;20.30;99.90
21271;DHT22;10795;50.796;3.860;2022-08-26T04:50:41;20.20;99.90
21271;DHT22;10795;50.796;3.860;2022-08-26T04:53:07;20.00;99.90
21271;DHT22;10795;50.796;3.860;2022-08-26T04:55:33;19.80;99.90
21271;DHT22;10795;50.796;3.860;2022-08-26T04:57:58;19.90;99.90
21271;DHT22;10795;50.796;3.860;2022-08-26T05:00:24;19.90;99.90
21271;DHT22;10795;50.796;3.860;2022-08-26T05:02:49;20.00;99.90
21271;DHT22;10795;50.796;3.860;2022-08-26T05:05:15;19.80;99.90
21271;DHT22;10795;50.796;3.860;2022-08-26T05:07:41;19.80;99.90
21271;DHT22;10795;50.796;3.860;2022-08-26T05:10:06;19.70;99.90
21271;DHT22;10795;50.796;3.860;2022-08-26T05:12:33;19.60;99.90
21271;DHT22;10795;50.796;3.860;2022-08-26T05:14:59;19.70;99.90
21271;DHT22;10795;50.796;3.860;2022-08-26T05:17:24;19.70;99.90
21271;DHT22;10795;50.796;3.860;2022-08-26T05:19:51;20.10;99.90
21271;DHT22;10795;50.796;3.860;2022-08-26T05:22:17;20.00;99.90
21271;DHT22;10795;50.796;3.860;2022-08-26T05:24:44;19.80;99.90
21271;DHT22;10795;50.796;3.860;2022-08-26T05:27:11;19.90;99.90
21271;DHT22;10795;50.796;3.860;2022-08-26T05:29:38;19.90;99.90
21271;DHT22;10795;50.796;3.860;2022-08-26T05:32:04;19.90;99.90
21271;DHT22;10795;50.796;3.860;2022-08-26T05:34:29;20.20;99.90
21271;DHT22;10795;50.796;3.860;2022-08-26T05:36:55;20.20;99.90
21271;DHT22;10795;50.796;3.860;2022-08-26T05:39:22;20.20;99.90
21271;DHT22;10795;50.796;3.860;2022-08-26T05:41:47;20.20;99.90
21271;DHT22;10795;50.796;3.860;2022-08-26T05:44:14;20.40;99.90
21271;DHT22;10795;50.796;3.860;2022-08-26T05:46:40;20.30;99.90
21271;DHT22;10795;50.796;3.860;2022-08-26T05:49:07;20.40;99.90
21271;DHT22;10795;50.796;3.860;2022-08-26T05:51:33;20.30;99.90
21271;DHT22;10795;50.796;3.860;2022-08-26T05:54:02;20.20;99.90
21271;DHT22;10795;50.796;3.860;2022-08-26T05:56:29;20.10;99.90
21271;DHT22;10795;50.796;3.860;2022-08-26T05:58:57;20.20;99.90
21271;DHT22;10795;50.796;3.860;2022-08-26T06:01:24;20.10;99.90
21271;DHT22;10795;50.796;3.860;2022-08-26T06:03:51;20.30;99.90
21271;DHT22;10795;50.796;3.860;2022-08-26T06:06:18;20.10;99.90
21271;DHT22;10795;50.796;3.860;2022-08-26T06:08:44;20.20;99.90
21271;DHT22;10795;50.796;3.860;2022-08-26T06:11:11;20.40;99.90
21271;DHT22;10795;50.796;3.860;2022-08-26T06:13:37;20.30;99.90
21271;DHT22;10795;50.796;3.860;2022-08-26T06:16:05;20.10;99.90
21271;DHT22;10795;50.796;3.860;2022-08-26T06:18:31;20.10;99.90
21271;DHT22;10795;50.796;3.860;2022-08-26T06:20:59;20.00;99.90
21271;DHT22;10795;50.796;3.860;2022-08-26T06:23:26;20.20;99.90
21271;DHT22;10795;50.796;3.860;2022-08-26T06:26:11;20.40;99.90
21271;DHT22;10795;50.796;3.860;2022-08-26T06:28:37;20.70;99.90
21271;DHT22;10795;50.796;3.860;2022-08-26T06:31:02;20.60;99.90
21271;DHT22;10795;50.796;3.860;2022-08-26T06:33:28;20.60;99.90
21271;DHT22;10795;50.796;3.860;2022-08-26T06:35:54;20.40;99.90
21271;DHT22;10795;50.796;3.860;2022-08-26T06:38:19;20.50;99.90
21271;DHT22;10795;50.796;3.860;2022-08-26T06:40:46;20.40;99.90
21271;DHT22;10795;50.796;3.860;2022-08-26T06:43:16;20.50;99.90
21271;DHT22;10795;50.796;3.860;2022-08-26T06:45:43;20.50;99.90
21271;DHT22;10795;50.796;3.860;2022-08-26T06:48:10;20.80;99.90
21271;DHT22;10795;50.796;3.860;2022-08-26T06:50:36;20.50;99.90
21271;DHT22;10795;50.796;3.860;2022-08-26T06:53:02;20.50;99.90
21271;DHT22;10795;50.796;3.860;2022-08-26T06:55:28;20.40;99.90
21271;DHT22;10795;50.796;3.860;2022-08-26T06:57:54;20.70;99.90
21271;DHT22;10795;50.796;3.860;2022-08-26T07:00:20;20.70;99.90
21271;DHT22;10795;50.796;3.860;2022-08-26T07:02:46;20.80;99.90
21271;DHT22;10795;50.796;3.860;2022-08-26T07:05:12;21.10;99.90
21271;DHT22;10795;50.796;3.860;2022-08-26T07:07:37;21.00;99.90
21271;DHT22;10795;50.796;3.860;2022-08-26T07:10:04;21.00;99.90
21271;DHT22;10795;50.796;3.860;2022-08-26T07:12:29;21.00;99.90
21271;DHT22;10795;50.796;3.860;2022-08-26T07:14:55;20.80;99.90
21271;DHT22;10795;50.796;3.860;2022-08-26T07:17:21;20.90;99.90
21271;DHT22;10795;50.796;3.860;2022-08-26T07:19:46;21.50;99.90
21271;DHT22;10795;50.796;3.860;2022-08-26T07:22:13;21.30;99.90
21271;DHT22;10795;50.796;3.860;2022-08-26T07:24:39;21.30;99.90
21271;DHT22;10795;50.796;3.860;2022-08-26T07:27:07;21.30;99.90
21271;DHT22;10795;50.796;3.860;2022-08-26T07:29:33;21.20;99.90
21271;DHT22;10795;50.796;3.860;2022-08-26T07:31:59;21.10;99.90
21271;DHT22;10795;50.796;3.860;2022-08-26T07:34:25;21.50;99.90
21271;DHT22;10795;50.796;3.860;2022-08-26T07:36:50;21.50;99.90
21271;DHT22;10795;50.796;3.860;2022-08-26T07:39:17;21.50;99.90
21271;DHT22;10795;50.796;3.860;2022-08-26T07:41:42;21.40;99.90
21271;DHT22;10795;50.796;3.860;2022-08-26T07:44:12;21.40;99.90
21271;DHT22;10795;50.796;3.860;2022-08-26T07:46:37;21.30;99.90
21271;DHT22;10795;50.796;3.860;2022-08-26T07:49:03;21.30;99.90
21271;DHT22;10795;50.796;3.860;2022-08-26T07:51:29;21.40;99.90
21271;DHT22;10795;50.796;3.860;2022-08-26T07:53:54;21.40;99.90
21271;DHT22;10795;50.796;3.860;2022-08-26T07:56:20;21.40;99.90
21271;DHT22;10795;50.796;3.860;2022-08-26T07:58:47;21.50;99.90
21271;DHT22;10795;50.796;3.860;2022-08-26T08:01:13;21.50;99.90
21271;DHT22;10795;50.796;3.860;2022-08-26T08:03:39;21.40;99.90
21271;DHT22;10795;50.796;3.860;2022-08-26T08:06:05;21.60;99.90
21271;DHT22;10795;50.796;3.860;2022-08-26T08:08:30;21.50;99.90
21271;DHT22;10795;50.796;3.860;2022-08-26T08:10:57;21.50;99.90
21271;DHT22;10795;50.796;3.860;2022-08-26T08:13:23;21.80;99.90
21271;DHT22;10795;50.796;3.860;2022-08-26T08:15:49;22.00;99.90
21271;DHT22;10795;50.796;3.860;2022-08-26T08:18:14;22.10;99.90
21271;DHT22;10795;50.796;3.860;2022-08-26T08:20:40;22.00;99.90
21271;DHT22;10795;50.796;3.860;2022-08-26T08:23:06;22.20;99.90
21271;DHT22;10795;50.796;3.860;2022-08-26T08:25:32;22.00;99.90
21271;DHT22;10795;50.796;3.860;2022-08-26T08:27:58;22.30;99.90
21271;DHT22;10795;50.796;3.860;2022-08-26T08:30:24;22.40;99.90
21271;DHT22;10795;50.796;3.860;2022-08-26T08:32:50;22.60;99.90
21271;DHT22;10795;50.796;3.860;2022-08-26T08:35:17;22.70;99.90
21271;DHT22;10795;50.796;3.860;2022-08-26T08:37:45;22.80;99.90
21271;DHT22;10795;50.796;3.860;2022-08-26T08:40:11;22.80;99.90
21271;DHT22;10795;50.796;3.860;2022-08-26T08:45:39;23.30;99.90
21271;DHT22;10795;50.796;3.860;2022-08-26T08:48:23;23.10;99.90
21271;DHT22;10795;50.796;3.860;2022-08-26T08:50:52;22.90;99.90
21271;DHT22;10795;50.796;3.860;2022-08-26T08:56:17;23.30;99.90
21271;DHT22;10795;50.796;3.860;2022-08-26T09:06:32;23.50;99.90
21271;DHT22;10795;50.796;3.860;2022-08-26T09:08:58;23.50;99.90
21271;DHT22;10795;50.796;3.860;2022-08-26T09:11:25;23.70;99.90
21271;DHT22;10795;50.796;3.860;2022-08-26T09:13:52;24.00;99.90
21271;DHT22;10795;50.796;3.860;2022-08-26T09:16:36;24.30;99.90
21271;DHT22;10795;50.796;3.860;2022-08-26T09:21:40;24.60;99.90
21271;DHT22;10795;50.796;3.860;2022-08-26T09:24:06;24.50;99.90
21271;DHT22;10795;50.796;3.860;2022-08-26T09:29:04;24.10;99.90
21271;DHT22;10795;50.796;3.860;2022-08-26T09:31:36;24.50;99.90
21271;DHT22;10795;50.796;3.860;2022-08-26T09:34:13;25.20;99.90
21271;DHT22;10795;50.796;3.860;2022-08-26T09:39:23;25.90;99.90
21271;DHT22;10795;50.796;3.860;2022-08-26T09:47:22;26.60;99.90
21271;DHT22;10795;50.796;3.860;2022-08-26T09:49:57;26.20;99.90
21271;DHT22;10795;50.796;3.860;2022-08-26T09:52:23;26.00;99.90
21271;DHT22;10795;50.796;3.860;2022-08-26T09:54:57;25.60;99.90
21271;DHT22;10795;50.796;3.860;2022-08-26T09:57:27;25.70;99.90
21271;DHT22;10795;50.796;3.860;2022-08-26T09:59:53;25.10;99.90
21271;DHT22;10795;50.796;3.860;2022-08-26T10:02:28;25.50;99.90
21271;DHT22;10795;50.796;3.860;2022-08-26T10:04:59;25.70;99.90
21271;DHT22;10795;50.796;3.860;2022-08-26T10:07:37;25.60;99.90
21271;DHT22;10795;50.796;3.860;2022-08-26T10:10:06;25.20;99.90
21271;DHT22;10795;50.796;3.860;2022-08-26T10:12:36;25.60;99.90
21271;DHT22;10795;50.796;3.860;2022-08-26T10:15:05;26.30;99.90
21271;DHT22;10795;50.796;3.860;2022-08-26T10:17:42;26.90;99.90
21271;DHT22;10795;50.796;3.860;2022-08-26T10:20:11;27.40;99.90
21271;DHT22;10795;50.796;3.860;2022-08-26T10:22:58;27.70;99.90
21271;DHT22;10795;50.796;3.860;2022-08-26T10:25:27;28.00;99.90
21271;DHT22;10795;50.796;3.860;2022-08-26T10:27:57;27.30;99.90
21271;DHT22;10795;50.796;3.860;2022-08-26T10:30:28;27.50;99.90
21271;DHT22;10795;50.796;3.860;2022-08-26T10:32:55;27.20;99.90
21271;DHT22;10795;50.796;3.860;2022-08-26T10:35:22;27.40;99.90
21271;DHT22;10795;50.796;3.860;2022-08-26T10:37:49;27.10;99.90
21271;DHT22;10795;50.796;3.860;2022-08-26T10:40:23;27.00;99.90
21271;DHT22;10795;50.796;3.860;2022-08-26T10:42:57;28.00;99.90
21271;DHT22;10795;50.796;3.860;2022-08-26T10:45:27;29.00;99.90
21271;DHT22;10795;50.796;3.860;2022-08-26T10:50:29;27.90;99.90
21271;DHT22;10795;50.796;3.860;2022-08-26T10:52:59;28.20;99.90
21271;DHT22;10795;50.796;3.860;2022-08-26T10:55:33;29.20;99.90
21271;DHT22;10795;50.796;3.860;2022-08-26T11:00:30;28.60;99.90
21271;DHT22;10795;50.796;3.860;2022-08-26T11:03:30;27.90;99.90
21271;DHT22;10795;50.796;3.860;2022-08-26T11:08:44;27.80;99.90
21271;DHT22;10795;50.796;3.860;2022-08-26T11:11:10;27.30;99.90
21271;DHT22;10795;50.796;3.860;2022-08-26T11:19:05;28.70;99.90
21271;DHT22;10795;50.796;3.860;2022-08-26T11:24:08;28.90;99.90
21271;DHT22;10795;50.796;3.860;2022-08-26T11:26:33;29.30;99.90
21271;DHT22;10795;50.796;3.860;2022-08-26T11:29:00;29.10;99.90
21271;DHT22;10795;50.796;3.860;2022-08-26T11:33:52;28.60;99.90
21271;DHT22;10795;50.796;3.860;2022-08-26T11:36:32;27.90;99.90
21271;DHT22;10795;50.796;3.860;2022-08-26T11:39:03;27.50;99.90
21271;DHT22;10795;50.796;3.860;2022-08-26T11:41:37;28.10;99.90
21271;DHT22;10795;50.796;3.860;2022-08-26T11:44:06;27.60;99.90
21271;DHT22;10795;50.796;3.860;2022-08-26T11:46:33;27.80;99.90
21271;DHT22;10795;50.796;3.860;2022-08-26T11:49:03;27.90;99.90
21271;DHT22;10795;50.796;3.860;2022-08-26T11:51:30;27.60;99.90
21271;DHT22;10795;50.796;3.860;2022-08-26T11:54:16;27.10;99.90
21271;DHT22;10795;50.796;3.860;2022-08-26T11:56:43;26.90;99.90
21271;DHT22;10795;50.796;3.860;2022-08-26T11:59:10;27.50;99.90
21271;DHT22;10795;50.796;3.860;2022-08-26T12:01:37;26.70;99.90
21271;DHT22;10795;50.796;3.860;2022-08-26T12:04:03;26.10;99.90
21271;DHT22;10795;50.796;3.860;2022-08-26T12:06:37;26.70;99.90
21271;DHT22;10795;50.796;3.860;2022-08-26T12:09:09;26.70;99.90
21271;DHT22;10795;50.796;3.860;2022-08-26T12:11:36;26.30;99.90
21271;DHT22;10795;50.796;3.860;2022-08-26T12:14:14;26.10;99.90
21271;DHT22;10795;50.796;3.860;2022-08-26T12:16:40;25.90;99.90
21271;DHT22;10795;50.796;3.860;2022-08-26T12:19:22;26.10;99.90
21271;DHT22;10795;50.796;3.860;2022-08-26T12:22:01;25.90;99.90
21271;DHT22;10795;50.796;3.860;2022-08-26T12:24:27;25.90;99.90
21271;DHT22;10795;50.796;3.860;2022-08-26T12:27:05;26.60;99.90
21271;DHT22;10795;50.796;3.860;2022-08-26T12:29:34;27.00;99.90
21271;DHT22;10795;50.796;3.860;2022-08-26T12:32:10;27.40;99.90
21271;DHT22;10795;50.796;3.860;2022-08-26T12:34:39;28.20;99.90
21271;DHT22;10795;50.796;3.860;2022-08-26T12:37:04;28.50;99.90
21271;DHT22;10795;50.796;3.860;2022-08-26T12:39:33;28.40;99.90
21271;DHT22;10795;50.796;3.860;2022-08-26T12:42:03;28.20;99.90
21271;DHT22;10795;50.796;3.860;2022-08-26T12:44:40;28.50;99.90
21271;DHT22;10795;50.796;3.860;2022-08-26T12:47:09;28.50;99.90
21271;DHT22;10795;50.796;3.860;2022-08-26T12:49:36;28.50;99.90
21271;DHT22;10795;50.796;3.860;2022-08-26T12:52:03;28.30;99.90
21271;DHT22;10795;50.796;3.860;2022-08-26T12:54:29;27.40;99.90
21271;DHT22;10795;50.796;3.860;2022-08-26T12:57:14;27.50;99.90
21271;DHT22;10795;50.796;3.860;2022-08-26T12:59:40;27.80;99.90
21271;DHT22;10795;50.796;3.860;2022-08-26T13:02:06;27.70;99.90
21271;DHT22;10795;50.796;3.860;2022-08-26T13:09:41;27.40;99.90
21271;DHT22;10795;50.796;3.860;2022-08-26T13:12:07;27.50;99.90
21271;DHT22;10795;50.796;3.860;2022-08-26T13:14:32;27.40;99.90
21271;DHT22;10795;50.796;3.860;2022-08-26T13:16:58;26.80;99.90
21271;DHT22;10795;50.796;3.860;2022-08-26T13:19:24;27.20;99.90
21271;DHT22;10795;50.796;3.860;2022-08-26T13:21:51;27.00;99.90
21271;DHT22;10795;50.796;3.860;2022-08-26T13:24:21;26.90;99.90
21271;DHT22;10795;50.796;3.860;2022-08-26T13:26:49;27.10;99.90
21271;DHT22;10795;50.796;3.860;2022-08-26T13:29:15;27.10;99.90
21271;DHT22;10795;50.796;3.860;2022-08-26T13:31:41;27.50;99.90
21271;DHT22;10795;50.796;3.860;2022-08-26T13:34:07;27.40;99.90
21271;DHT22;10795;50.796;3.860;2022-08-26T13:36:33;27.20;99.90
21271;DHT22;10795;50.796;3.860;2022-08-26T13:38:59;26.70;99.90
21271;DHT22;10795;50.796;3.860;2022-08-26T13:41:25;26.70;99.90
21271;DHT22;10795;50.796;3.860;2022-08-26T13:43:50;26.70;99.90
21271;DHT22;10795;50.796;3.860;2022-08-26T13:46:16;26.70;99.90
21271;DHT22;10795;50.796;3.860;2022-08-26T13:48:44;26.40;99.90
21271;DHT22;10795;50.796;3.860;2022-08-26T13:51:10;26.10;99.90
21271;DHT22;10795;50.796;3.860;2022-08-26T13:53:36;26.00;99.90
21271;DHT22;10795;50.796;3.860;2022-08-26T13:56:02;26.70;99.90
21271;DHT22;10795;50.796;3.860;2022-08-26T13:58:28;26.40;99.90
21271;DHT22;10795;50.796;3.860;2022-08-26T14:00:54;26.20;99.90
21271;DHT22;10795;50.796;3.860;2022-08-26T14:03:20;25.90;99.90
21271;DHT22;10795;50.796;3.860;2022-08-26T14:05:46;25.60;99.90
21271;DHT22;10795;50.796;3.860;2022-08-26T14:08:12;25.60;99.90
21271;DHT22;10795;50.796;3.860;2022-08-26T14:10:38;25.60;99.90
21271;DHT22;10795;50.796;3.860;2022-08-26T14:13:03;26.00;99.90
21271;DHT22;10795;50.796;3.860;2022-08-26T14:15:32;26.20;99.90
21271;DHT22;10795;50.796;3.860;2022-08-26T14:18:00;25.90;99.90
21271;DHT22;10795;50.796;3.860;2022-08-26T14:20:26;26.10;99.90
21271;DHT22;10795;50.796;3.860;2022-08-26T14:22:53;25.70;99.90
21271;DHT22;10795;50.796;3.860;2022-08-26T14:25:19;25.50;99.90
21271;DHT22;10795;50.796;3.860;2022-08-26T14:27:47;25.50;99.90
21271;DHT22;10795;50.796;3.860;2022-08-26T14:30:12;25.40;99.90
21271;DHT22;10795;50.796;3.860;2022-08-26T14:32:39;25.40;99.90
21271;DHT22;10795;50.796;3.860;2022-08-26T14:35:07;25.60;99.90
21271;DHT22;10795;50.796;3.860;2022-08-26T14:37:33;25.90;99.90
21271;DHT22;10795;50.796;3.860;2022-08-26T14:39:58;25.90;99.90
21271;DHT22;10795;50.796;3.860;2022-08-26T14:42:25;25.40;99.90
21271;DHT22;10795;50.796;3.860;2022-08-26T14:44:55;25.50;99.90
21271;DHT22;10795;50.796;3.860;2022-08-26T14:47:21;25.30;99.90
21271;DHT22;10795;50.796;3.860;2022-08-26T14:49:47;25.70;99.90
21271;DHT22;10795;50.796;3.860;2022-08-26T14:52:13;25.70;99.90
21271;DHT22;10795;50.796;3.860;2022-08-26T14:54:38;25.90;99.90
21271;DHT22;10795;50.796;3.860;2022-08-26T14:57:05;26.00;99.90
21271;DHT22;10795;50.796;3.860;2022-08-26T14:59:36;25.60;99.90
21271;DHT22;10795;50.796;3.860;2022-08-26T15:02:02;25.20;99.90
21271;DHT22;10795;50.796;3.860;2022-08-26T15:04:28;25.20;99.90
21271;DHT22;10795;50.796;3.860;2022-08-26T15:06:54;25.30;99.90
21271;DHT22;10795;50.796;3.860;2022-08-26T15:09:21;25.60;99.90
21271;DHT22;10795;50.796;3.860;2022-08-26T15:11:46;26.00;99.90
21271;DHT22;10795;50.796;3.860;2022-08-26T15:14:12;25.60;99.90
21271;DHT22;10795;50.796;3.860;2022-08-26T15:16:38;25.70;99.90
21271;DHT22;10795;50.796;3.860;2022-08-26T15:19:04;25.50;99.90
21271;DHT22;10795;50.796;3.860;2022-08-26T15:21:31;25.00;99.90
21271;DHT22;10795;50.796;3.860;2022-08-26T15:23:56;25.40;99.90
21271;DHT22;10795;50.796;3.860;2022-08-26T15:26:23;25.30;99.90
21271;DHT22;10795;50.796;3.860;2022-08-26T15:28:49;25.40;99.90
21271;DHT22;10795;50.796;3.860;2022-08-26T15:31:15;25.50;99.90
21271;DHT22;10795;50.796;3.860;2022-08-26T15:33:41;25.50;99.90
21271;DHT22;10795;50.796;3.860;2022-08-26T15:36:07;24.80;99.90
21271;DHT22;10795;50.796;3.860;2022-08-26T15:38:37;24.70;99.90
21271;DHT22;10795;50.796;3.860;2022-08-26T15:41:04;24.90;99.90
21271;DHT22;10795;50.796;3.860;2022-08-26T15:43:30;25.00;99.90
21271;DHT22;10795;50.796;3.860;2022-08-26T15:45:56;25.30;99.90
21271;DHT22;10795;50.796;3.860;2022-08-26T15:48:22;25.30;99.90
21271;DHT22;10795;50.796;3.860;2022-08-26T15:50:53;25.40;99.90
21271;DHT22;10795;50.796;3.860;2022-08-26T15:53:19;25.50;99.90
21271;DHT22;10795;50.796;3.860;2022-08-26T15:55:46;25.20;99.90
21271;DHT22;10795;50.796;3.860;2022-08-26T15:58:12;25.10;99.90
21271;DHT22;10795;50.796;3.860;2022-08-26T16:00:38;25.00;99.90
21271;DHT22;10795;50.796;3.860;2022-08-26T16:03:05;24.80;99.90
21271;DHT22;10795;50.796;3.860;2022-08-26T16:05:37;25.00;99.90
21271;DHT22;10795;50.796;3.860;2022-08-26T16:08:04;24.70;99.90
21271;DHT22;10795;50.796;3.860;2022-08-26T16:10:31;24.30;99.90
21271;DHT22;10795;50.796;3.860;2022-08-26T16:12:56;24.00;99.90
21271;DHT22;10795;50.796;3.860;2022-08-26T16:15:22;24.10;99.90
21271;DHT22;10795;50.796;3.860;2022-08-26T16:17:48;24.20;99.90
21271;DHT22;10795;50.796;3.860;2022-08-26T16:20:13;24.50;99.90
21271;DHT22;10795;50.796;3.860;2022-08-26T16:22:39;24.20;99.90
21271;DHT22;10795;50.796;3.860;2022-08-26T16:25:05;24.10;99.90
21271;DHT22;10795;50.796;3.860;2022-08-26T16:27:31;24.00;99.90